sensor_id;sensor_type;location;lat;lon;timestamp;pressure;altitude;pressure_sealevel;temperature
77414;BMP280;66486;49.992;19.164;2023-09-18T00:00:51;99063.16;;;16.06
77414;BMP280;66486;49.992;19.164;2023-09-18T00:03:37;99056.19;;;15.96
77414;BMP280;66486;49.992;19.164;2023-09-18T00:06:03;99055.88;;;15.94
77414;BMP280;66486;49.992;19.164;2023-09-18T00:08:29;99059.72;;;15.84
77414;BMP280;66486;49.992;19.164;2023-09-18T00:10:55;99055.81;;;15.85
77414;BMP280;66486;49.992;19.164;2023-09-18T00:13:22;99061.72;;;15.84
77414;BMP280;66486;49.992;19.164;2023-09-18T00:15:48;99049.69;;;15.94
77414;BMP280;66486;49.992;19.164;2023-09-18T00:18:15;99058.69;;;15.82
77414;BMP280;66486;49.992;19.164;2023-09-18T00:20:42;99056.91;;;15.88
77414;BMP280;66486;49.992;19.164;2023-09-18T00:23:09;99047.69;;;15.85
77414;BMP280;66486;49.992;19.164;2023-09-18T00:25:35;99049.94;;;15.87
77414;BMP280;66486;49.992;19.164;2023-09-18T00:28:01;99040.88;;;15.81
77414;BMP280;66486;49.992;19.164;2023-09-18T00:30:27;99049.78;;;15.81
77414;BMP280;66486;49.992;19.164;2023-09-18T00:32:53;99044.94;;;15.76
77414;BMP280;66486;49.992;19.164;2023-09-18T00:35:18;99044.03;;;15.79
77414;BMP280;66486;49.992;19.164;2023-09-18T00:37:45;99047.63;;;15.76
77414;BMP280;66486;49.992;19.164;2023-09-18T00:40:11;99042.59;;;15.66
77414;BMP280;66486;49.992;19.164;2023-09-18T00:42:37;99049.66;;;15.63
77414;BMP280;66486;49.992;19.164;2023-09-18T00:45:03;99049.28;;;15.52
77414;BMP280;66486;49.992;19.164;2023-09-18T00:47:31;99049.63;;;15.54
77414;BMP280;66486;49.992;19.164;2023-09-18T00:49:57;99045.09;;;15.51
77414;BMP280;66486;49.992;19.164;2023-09-18T00:52:25;99046.91;;;15.54
77414;BMP280;66486;49.992;19.164;2023-09-18T00:54:52;99037.06;;;15.47
77414;BMP280;66486;49.992;19.164;2023-09-18T00:57:20;99038.81;;;15.63
77414;BMP280;66486;49.992;19.164;2023-09-18T00:59:46;99039.78;;;15.47
77414;BMP280;66486;49.992;19.164;2023-09-18T01:02:12;99039.00;;;15.47
77414;BMP280;66486;49.992;19.164;2023-09-18T01:04:39;99045.00;;;15.42
77414;BMP280;66486;49.992;19.164;2023-09-18T01:07:10;99040.19;;;15.46
77414;BMP280;66486;49.992;19.164;2023-09-18T01:09:36;99037.50;;;15.46
77414;BMP280;66486;49.992;19.164;2023-09-18T01:12:12;99039.28;;;15.40
77414;BMP280;66486;49.992;19.164;2023-09-18T01:14:53;99034.25;;;15.51
77414;BMP280;66486;49.992;19.164;2023-09-18T01:17:22;99036.25;;;15.38
77414;BMP280;66486;49.992;19.164;2023-09-18T01:19:48;99043.50;;;15.41
77414;BMP280;66486;49.992;19.164;2023-09-18T01:22:16;99039.56;;;15.42
77414;BMP280;66486;49.992;19.164;2023-09-18T01:24:43;99032.06;;;15.24
77414;BMP280;66486;49.992;19.164;2023-09-18T01:27:16;99039.44;;;15.24
77414;BMP280;66486;49.992;19.164;2023-09-18T01:29:45;99034.50;;;15.22
77414;BMP280;66486;49.992;19.164;2023-09-18T01:32:12;99037.63;;;15.21
77414;BMP280;66486;49.992;19.164;2023-09-18T01:34:42;99035.91;;;15.14
77414;BMP280;66486;49.992;19.164;2023-09-18T01:37:11;99035.50;;;15.16
77414;BMP280;66486;49.992;19.164;2023-09-18T01:39:38;99034.34;;;15.04
77414;BMP280;66486;49.992;19.164;2023-09-18T01:42:06;99039.41;;;15.15
77414;BMP280;66486;49.992;19.164;2023-09-18T01:44:36;99030.91;;;15.13
77414;BMP280;66486;49.992;19.164;2023-09-18T01:47:16;99030.50;;;15.14
77414;BMP280;66486;49.992;19.164;2023-09-18T01:49:43;99034.97;;;15.08
77414;BMP280;66486;49.992;19.164;2023-09-18T01:52:09;99031.19;;;15.06
77414;BMP280;66486;49.992;19.164;2023-09-18T01:54:36;99037.19;;;15.01
77414;BMP280;66486;49.992;19.164;2023-09-18T01:57:02;99037.19;;;15.01
77414;BMP280;66486;49.992;19.164;2023-09-18T01:59:29;99028.16;;;15.04
77414;BMP280;66486;49.992;19.164;2023-09-18T02:01:55;99038.13;;;15.07
77414;BMP280;66486;49.992;19.164;2023-09-18T02:04:22;99040.00;;;14.97
77414;BMP280;66486;49.992;19.164;2023-09-18T02:06:49;99029.56;;;14.96
77414;BMP280;66486;49.992;19.164;2023-09-18T02:09:16;99025.06;;;14.93
77414;BMP280;66486;49.992;19.164;2023-09-18T02:11:46;99032.63;;;14.98
77414;BMP280;66486;49.992;19.164;2023-09-18T02:14:12;99027.63;;;14.96
77414;BMP280;66486;49.992;19.164;2023-09-18T02:16:41;99029.16;;;14.97
77414;BMP280;66486;49.992;19.164;2023-09-18T02:19:08;99021.16;;;14.94
77414;BMP280;66486;49.992;19.164;2023-09-18T02:21:35;99026.81;;;14.87
77414;BMP280;66486;49.992;19.164;2023-09-18T02:24:01;99033.31;;;14.89
77414;BMP280;66486;49.992;19.164;2023-09-18T02:26:28;99025.47;;;14.91
77414;BMP280;66486;49.992;19.164;2023-09-18T02:28:54;99023.22;;;14.90
77414;BMP280;66486;49.992;19.164;2023-09-18T02:31:21;99026.47;;;14.85
77414;BMP280;66486;49.992;19.164;2023-09-18T02:33:48;99019.78;;;14.76
77414;BMP280;66486;49.992;19.164;2023-09-18T02:36:14;99014.25;;;14.80
77414;BMP280;66486;49.992;19.164;2023-09-18T02:38:40;99025.84;;;14.81
77414;BMP280;66486;49.992;19.164;2023-09-18T02:41:06;99016.94;;;14.80
77414;BMP280;66486;49.992;19.164;2023-09-18T02:43:32;99017.28;;;14.82
77414;BMP280;66486;49.992;19.164;2023-09-18T02:45:59;99008.19;;;14.76
77414;BMP280;66486;49.992;19.164;2023-09-18T02:48:24;99015.38;;;14.70
77414;BMP280;66486;49.992;19.164;2023-09-18T02:50:51;99012.53;;;14.73
77414;BMP280;66486;49.992;19.164;2023-09-18T02:53:21;99020.16;;;14.66
77414;BMP280;66486;49.992;19.164;2023-09-18T02:55:53;99009.31;;;14.66
77414;BMP280;66486;49.992;19.164;2023-09-18T02:58:19;99013.50;;;14.67
77414;BMP280;66486;49.992;19.164;2023-09-18T03:00:48;99014.19;;;14.58
77414;BMP280;66486;49.992;19.164;2023-09-18T03:03:14;99008.13;;;14.54
77414;BMP280;66486;49.992;19.164;2023-09-18T03:05:42;99007.06;;;14.52
77414;BMP280;66486;49.992;19.164;2023-09-18T03:08:09;99006.41;;;14.60
77414;BMP280;66486;49.992;19.164;2023-09-18T03:10:36;99010.84;;;14.54
77414;BMP280;66486;49.992;19.164;2023-09-18T03:13:03;99005.97;;;14.49
77414;BMP280;66486;49.992;19.164;2023-09-18T03:15:30;99009.88;;;14.61
77414;BMP280;66486;49.992;19.164;2023-09-18T03:17:58;98994.16;;;14.43
77414;BMP280;66486;49.992;19.164;2023-09-18T03:20:25;98990.84;;;14.39
77414;BMP280;66486;49.992;19.164;2023-09-18T03:22:53;98987.50;;;14.35
77414;BMP280;66486;49.992;19.164;2023-09-18T03:25:20;98998.63;;;14.37
77414;BMP280;66486;49.992;19.164;2023-09-18T03:27:47;98996.91;;;14.31
77414;BMP280;66486;49.992;19.164;2023-09-18T03:30:13;98989.03;;;14.24
77414;BMP280;66486;49.992;19.164;2023-09-18T03:32:42;98994.31;;;14.27
77414;BMP280;66486;49.992;19.164;2023-09-18T03:35:09;98998.31;;;14.23
77414;BMP280;66486;49.992;19.164;2023-09-18T03:37:44;98998.22;;;14.14
77414;BMP280;66486;49.992;19.164;2023-09-18T03:40:10;98987.09;;;13.99
77414;BMP280;66486;49.992;19.164;2023-09-18T03:42:36;98981.75;;;14.08
77414;BMP280;66486;49.992;19.164;2023-09-18T03:45:02;98979.72;;;14.12
77414;BMP280;66486;49.992;19.164;2023-09-18T03:47:28;98980.69;;;14.18
77414;BMP280;66486;49.992;19.164;2023-09-18T03:49:54;98978.84;;;14.28
77414;BMP280;66486;49.992;19.164;2023-09-18T03:52:21;98976.44;;;14.30
77414;BMP280;66486;49.992;19.164;2023-09-18T03:54:47;98970.91;;;14.33
77414;BMP280;66486;49.992;19.164;2023-09-18T03:57:12;98973.19;;;14.22
77414;BMP280;66486;49.992;19.164;2023-09-18T03:59:39;98980.22;;;14.32
77414;BMP280;66486;49.992;19.164;2023-09-18T04:02:04;98970.50;;;14.22
77414;BMP280;66486;49.992;19.164;2023-09-18T04:04:31;98965.66;;;14.17
77414;BMP280;66486;49.992;19.164;2023-09-18T04:06:57;98964.88;;;14.17
77414;BMP280;66486;49.992;19.164;2023-09-18T04:09:24;98959.16;;;14.02
77414;BMP280;66486;49.992;19.164;2023-09-18T04:11:49;98961.63;;;14.09
77414;BMP280;66486;49.992;19.164;2023-09-18T04:14:16;98946.81;;;14.01
77414;BMP280;66486;49.992;19.164;2023-09-18T04:16:41;98952.00;;;14.08
77414;BMP280;66486;49.992;19.164;2023-09-18T04:19:08;98953.72;;;14.15
77414;BMP280;66486;49.992;19.164;2023-09-18T04:21:35;98962.31;;;14.13
77414;BMP280;66486;49.992;19.164;2023-09-18T04:24:01;98958.25;;;14.18
77414;BMP280;66486;49.992;19.164;2023-09-18T04:26:28;98960.84;;;14.21
77414;BMP280;66486;49.992;19.164;2023-09-18T04:28:57;98960.25;;;14.17
77414;BMP280;66486;49.992;19.164;2023-09-18T04:31:23;98958.72;;;14.16
77414;BMP280;66486;49.992;19.164;2023-09-18T04:33:49;98953.50;;;14.22
77414;BMP280;66486;49.992;19.164;2023-09-18T04:36:15;98958.13;;;14.21
77414;BMP280;66486;49.992;19.164;2023-09-18T04:38:41;98959.53;;;14.38
77414;BMP280;66486;49.992;19.164;2023-09-18T04:41:07;98952.31;;;14.35
77414;BMP280;66486;49.992;19.164;2023-09-18T04:43:35;98949.69;;;14.32
77414;BMP280;66486;49.992;19.164;2023-09-18T04:46:01;98948.41;;;14.36
77414;BMP280;66486;49.992;19.164;2023-09-18T04:48:32;98950.56;;;14.41
77414;BMP280;66486;49.992;19.164;2023-09-18T04:50:58;98943.63;;;14.40
77414;BMP280;66486;49.992;19.164;2023-09-18T04:53:27;98932.22;;;14.45
77414;BMP280;66486;49.992;19.164;2023-09-18T04:55:53;98937.84;;;14.51
77414;BMP280;66486;49.992;19.164;2023-09-18T04:58:20;98938.81;;;14.57
77414;BMP280;66486;49.992;19.164;2023-09-18T05:00:46;98946.31;;;14.53
77414;BMP280;66486;49.992;19.164;2023-09-18T05:03:15;98935.34;;;14.56
77414;BMP280;66486;49.992;19.164;2023-09-18T05:05:40;98937.00;;;14.54
77414;BMP280;66486;49.992;19.164;2023-09-18T05:08:07;98938.06;;;14.56
77414;BMP280;66486;49.992;19.164;2023-09-18T05:10:34;98932.81;;;14.62
77414;BMP280;66486;49.992;19.164;2023-09-18T05:13:00;98939.47;;;14.61
77414;BMP280;66486;49.992;19.164;2023-09-18T05:15:26;98934.47;;;14.59
77414;BMP280;66486;49.992;19.164;2023-09-18T05:17:55;98940.84;;;14.65
77414;BMP280;66486;49.992;19.164;2023-09-18T05:20:24;98942.09;;;14.73
77414;BMP280;66486;49.992;19.164;2023-09-18T05:22:52;98940.56;;;14.72
77414;BMP280;66486;49.992;19.164;2023-09-18T05:25:19;98938.97;;;14.75
77414;BMP280;66486;49.992;19.164;2023-09-18T05:27:46;98942.00;;;14.77
77414;BMP280;66486;49.992;19.164;2023-09-18T05:30:20;98934.84;;;14.83
77414;BMP280;66486;49.992;19.164;2023-09-18T05:32:47;98937.03;;;14.97
77414;BMP280;66486;49.992;19.164;2023-09-18T05:35:14;98924.56;;;15.00
77414;BMP280;66486;49.992;19.164;2023-09-18T05:37:41;98923.78;;;14.99
77414;BMP280;66486;49.992;19.164;2023-09-18T05:40:09;98924.41;;;15.03
77414;BMP280;66486;49.992;19.164;2023-09-18T05:42:40;98923.25;;;15.13
77414;BMP280;66486;49.992;19.164;2023-09-18T05:45:10;98913.66;;;15.43
77414;BMP280;66486;49.992;19.164;2023-09-18T05:47:37;98910.50;;;15.44
77414;BMP280;66486;49.992;19.164;2023-09-18T05:50:08;98910.78;;;15.46
77414;BMP280;66486;49.992;19.164;2023-09-18T05:52:35;98906.78;;;15.51
77414;BMP280;66486;49.992;19.164;2023-09-18T05:55:04;98905.28;;;15.59
77414;BMP280;66486;49.992;19.164;2023-09-18T05:57:30;98895.69;;;15.67
77414;BMP280;66486;49.992;19.164;2023-09-18T05:59:57;98900.28;;;15.88
77414;BMP280;66486;49.992;19.164;2023-09-18T06:02:23;98899.34;;;16.00
77414;BMP280;66486;49.992;19.164;2023-09-18T06:04:59;98897.44;;;16.10
77414;BMP280;66486;49.992;19.164;2023-09-18T06:07:29;98903.34;;;16.36
77414;BMP280;66486;49.992;19.164;2023-09-18T06:09:57;98895.22;;;16.36
77414;BMP280;66486;49.992;19.164;2023-09-18T06:12:23;98893.69;;;16.44
77414;BMP280;66486;49.992;19.164;2023-09-18T06:14:50;98900.03;;;16.50
77414;BMP280;66486;49.992;19.164;2023-09-18T06:17:17;98891.75;;;16.62
77414;BMP280;66486;49.992;19.164;2023-09-18T06:19:44;98900.63;;;16.72
77414;BMP280;66486;49.992;19.164;2023-09-18T06:22:11;98895.75;;;16.85
77414;BMP280;66486;49.992;19.164;2023-09-18T06:24:37;98892.66;;;17.10
77414;BMP280;66486;49.992;19.164;2023-09-18T06:27:04;98891.63;;;17.08
77414;BMP280;66486;49.992;19.164;2023-09-18T06:29:33;98882.13;;;17.12
77414;BMP280;66486;49.992;19.164;2023-09-18T06:32:00;98883.91;;;17.15
77414;BMP280;66486;49.992;19.164;2023-09-18T06:34:26;98881.50;;;17.17
77414;BMP280;66486;49.992;19.164;2023-09-18T06:36:54;98875.72;;;17.24
77414;BMP280;66486;49.992;19.164;2023-09-18T06:39:20;98887.03;;;17.32
77414;BMP280;66486;49.992;19.164;2023-09-18T06:41:48;98887.75;;;17.41
77414;BMP280;66486;49.992;19.164;2023-09-18T06:44:14;98880.41;;;17.56
77414;BMP280;66486;49.992;19.164;2023-09-18T06:46:40;98887.44;;;17.72
77414;BMP280;66486;49.992;19.164;2023-09-18T06:49:06;98879.72;;;17.94
77414;BMP280;66486;49.992;19.164;2023-09-18T06:51:32;98883.59;;;18.02
77414;BMP280;66486;49.992;19.164;2023-09-18T06:53:58;98883.06;;;18.13
77414;BMP280;66486;49.992;19.164;2023-09-18T06:56:24;98880.00;;;18.34
77414;BMP280;66486;49.992;19.164;2023-09-18T06:58:51;98883.41;;;18.44
77414;BMP280;66486;49.992;19.164;2023-09-18T07:01:19;98884.06;;;18.53
77414;BMP280;66486;49.992;19.164;2023-09-18T07:03:47;98884.00;;;18.62
77414;BMP280;66486;49.992;19.164;2023-09-18T07:06:14;98881.53;;;18.79
77414;BMP280;66486;49.992;19.164;2023-09-18T07:08:44;98884.84;;;18.83
77414;BMP280;66486;49.992;19.164;2023-09-18T07:11:10;98876.00;;;18.88
77414;BMP280;66486;49.992;19.164;2023-09-18T07:13:38;98873.00;;;19.01
77414;BMP280;66486;49.992;19.164;2023-09-18T07:16:05;98874.88;;;19.09
77414;BMP280;66486;49.992;19.164;2023-09-18T07:18:32;98878.50;;;19.21
77414;BMP280;66486;49.992;19.164;2023-09-18T07:20:58;98882.63;;;19.31
77414;BMP280;66486;49.992;19.164;2023-09-18T07:23:24;98876.97;;;19.34
77414;BMP280;66486;49.992;19.164;2023-09-18T07:25:50;98880.59;;;19.46
77414;BMP280;66486;49.992;19.164;2023-09-18T07:28:16;98869.28;;;19.53
77414;BMP280;66486;49.992;19.164;2023-09-18T07:30:44;98865.28;;;19.69
77414;BMP280;66486;49.992;19.164;2023-09-18T07:33:11;98869.38;;;19.79
77414;BMP280;66486;49.992;19.164;2023-09-18T07:35:38;98862.53;;;19.89
77414;BMP280;66486;49.992;19.164;2023-09-18T07:38:04;98863.97;;;20.30
77414;BMP280;66486;49.992;19.164;2023-09-18T07:40:30;98869.38;;;20.50
77414;BMP280;66486;49.992;19.164;2023-09-18T07:42:56;98866.72;;;20.61
77414;BMP280;66486;49.992;19.164;2023-09-18T07:45:25;98860.34;;;21.01
77414;BMP280;66486;49.992;19.164;2023-09-18T07:47:51;98860.44;;;21.17
77414;BMP280;66486;49.992;19.164;2023-09-18T07:50:17;98852.13;;;21.43
77414;BMP280;66486;49.992;19.164;2023-09-18T07:52:44;98850.63;;;21.42
77414;BMP280;66486;49.992;19.164;2023-09-18T07:55:09;98840.47;;;21.54
77414;BMP280;66486;49.992;19.164;2023-09-18T07:57:36;98850.44;;;21.57
77414;BMP280;66486;49.992;19.164;2023-09-18T08:00:06;98849.47;;;21.65
77414;BMP280;66486;49.992;19.164;2023-09-18T08:02:39;98835.06;;;21.81
77414;BMP280;66486;49.992;19.164;2023-09-18T08:05:05;98849.53;;;21.93
77414;BMP280;66486;49.992;19.164;2023-09-18T08:07:33;98838.88;;;22.06
77414;BMP280;66486;49.992;19.164;2023-09-18T08:10:00;98843.13;;;22.29
77414;BMP280;66486;49.992;19.164;2023-09-18T08:12:26;98837.91;;;22.48
77414;BMP280;66486;49.992;19.164;2023-09-18T08:14:52;98847.41;;;22.63
77414;BMP280;66486;49.992;19.164;2023-09-18T08:17:18;98842.63;;;22.69
77414;BMP280;66486;49.992;19.164;2023-09-18T08:19:44;98841.16;;;22.79
77414;BMP280;66486;49.992;19.164;2023-09-18T08:22:10;98843.38;;;22.86
77414;BMP280;66486;49.992;19.164;2023-09-18T08:24:41;98839.84;;;22.91
77414;BMP280;66486;49.992;19.164;2023-09-18T08:27:07;98838.31;;;23.12
77414;BMP280;66486;49.992;19.164;2023-09-18T08:29:33;98842.47;;;23.35
77414;BMP280;66486;49.992;19.164;2023-09-18T08:31:59;98832.44;;;23.49
77414;BMP280;66486;49.992;19.164;2023-09-18T08:34:25;98841.31;;;23.72
77414;BMP280;66486;49.992;19.164;2023-09-18T08:36:52;98845.66;;;23.97
77414;BMP280;66486;49.992;19.164;2023-09-18T08:39:18;98840.91;;;24.03
77414;BMP280;66486;49.992;19.164;2023-09-18T08:41:49;98833.34;;;24.09
77414;BMP280;66486;49.992;19.164;2023-09-18T08:44:17;98829.47;;;24.23
77414;BMP280;66486;49.992;19.164;2023-09-18T08:46:44;98825.59;;;24.37
77414;BMP280;66486;49.992;19.164;2023-09-18T08:49:10;98823.19;;;24.52
77414;BMP280;66486;49.992;19.164;2023-09-18T08:51:38;98824.44;;;24.57
77414;BMP280;66486;49.992;19.164;2023-09-18T08:54:05;98824.59;;;24.64
77414;BMP280;66486;49.992;19.164;2023-09-18T08:56:33;98823.00;;;24.74
77414;BMP280;66486;49.992;19.164;2023-09-18T08:58:59;98822.59;;;24.89
77414;BMP280;66486;49.992;19.164;2023-09-18T09:01:26;98817.34;;;25.28
77414;BMP280;66486;49.992;19.164;2023-09-18T09:03:52;98811.06;;;25.33
77414;BMP280;66486;49.992;19.164;2023-09-18T09:06:18;98808.66;;;25.42
77414;BMP280;66486;49.992;19.164;2023-09-18T09:08:44;98803.59;;;25.46
77414;BMP280;66486;49.992;19.164;2023-09-18T09:11:10;98800.38;;;25.61
77414;BMP280;66486;49.992;19.164;2023-09-18T09:13:36;98796.50;;;25.70
77414;BMP280;66486;49.992;19.164;2023-09-18T09:16:02;98798.78;;;25.84
77414;BMP280;66486;49.992;19.164;2023-09-18T09:18:29;98795.06;;;25.82
77414;BMP280;66486;49.992;19.164;2023-09-18T09:21:02;98798.88;;;25.79
77414;BMP280;66486;49.992;19.164;2023-09-18T09:23:48;98789.88;;;25.91
77414;BMP280;66486;49.992;19.164;2023-09-18T09:26:20;98792.78;;;25.99
77414;BMP280;66486;49.992;19.164;2023-09-18T09:28:46;98793.78;;;26.14
77414;BMP280;66486;49.992;19.164;2023-09-18T09:31:23;98786.47;;;26.30
77414;BMP280;66486;49.992;19.164;2023-09-18T09:33:51;98776.94;;;26.44
77414;BMP280;66486;49.992;19.164;2023-09-18T09:36:20;98774.50;;;26.66
77414;BMP280;66486;49.992;19.164;2023-09-18T09:38:46;98777.56;;;26.50
77414;BMP280;66486;49.992;19.164;2023-09-18T09:41:16;98771.19;;;26.68
77414;BMP280;66486;49.992;19.164;2023-09-18T09:43:43;98766.31;;;26.61
77414;BMP280;66486;49.992;19.164;2023-09-18T09:46:17;98764.28;;;26.61
77414;BMP280;66486;49.992;19.164;2023-09-18T09:49:04;98761.44;;;26.80
77414;BMP280;66486;49.992;19.164;2023-09-18T09:51:31;98762.88;;;26.81
77414;BMP280;66486;49.992;19.164;2023-09-18T09:53:57;98760.22;;;26.89
77414;BMP280;66486;49.992;19.164;2023-09-18T09:56:49;98752.91;;;26.78
77414;BMP280;66486;49.992;19.164;2023-09-18T09:59:19;98764.28;;;26.74
77414;BMP280;66486;49.992;19.164;2023-09-18T10:01:46;98761.63;;;26.95
77414;BMP280;66486;49.992;19.164;2023-09-18T10:04:17;98765.69;;;27.15
77414;BMP280;66486;49.992;19.164;2023-09-18T10:06:48;98757.06;;;27.18
77414;BMP280;66486;49.992;19.164;2023-09-18T10:09:16;98766.44;;;27.15
77414;BMP280;66486;49.992;19.164;2023-09-18T10:11:51;98759.19;;;27.25
77414;BMP280;66486;49.992;19.164;2023-09-18T10:14:20;98749.81;;;27.28
77414;BMP280;66486;49.992;19.164;2023-09-18T10:16:52;98752.91;;;27.25
77414;BMP280;66486;49.992;19.164;2023-09-18T10:19:33;98748.28;;;27.40
77414;BMP280;66486;49.992;19.164;2023-09-18T10:24:46;98739.28;;;27.60
77414;BMP280;66486;49.992;19.164;2023-09-18T10:27:13;98739.19;;;27.53
77414;BMP280;66486;49.992;19.164;2023-09-18T10:29:41;98743.97;;;27.52
77414;BMP280;66486;49.992;19.164;2023-09-18T10:32:11;98738.38;;;27.65
77414;BMP280;66486;49.992;19.164;2023-09-18T10:34:37;98744.06;;;27.60
77414;BMP280;66486;49.992;19.164;2023-09-18T10:37:04;98736.09;;;27.56
77414;BMP280;66486;49.992;19.164;2023-09-18T10:39:38;98737.03;;;27.59
77414;BMP280;66486;49.992;19.164;2023-09-18T10:42:08;98735.19;;;27.61
77414;BMP280;66486;49.992;19.164;2023-09-18T10:44:34;98731.84;;;27.76
77414;BMP280;66486;49.992;19.164;2023-09-18T10:47:05;98736.72;;;27.90
77414;BMP280;66486;49.992;19.164;2023-09-18T10:49:34;98726.91;;;27.82
77414;BMP280;66486;49.992;19.164;2023-09-18T10:52:01;98730.06;;;27.86
77414;BMP280;66486;49.992;19.164;2023-09-18T10:54:30;98727.09;;;27.84
77414;BMP280;66486;49.992;19.164;2023-09-18T10:56:57;98726.69;;;28.00
77414;BMP280;66486;49.992;19.164;2023-09-18T10:59:23;98719.19;;;27.88
77414;BMP280;66486;49.992;19.164;2023-09-18T11:01:49;98717.06;;;28.01
77414;BMP280;66486;49.992;19.164;2023-09-18T11:04:20;98712.19;;;28.15
77414;BMP280;66486;49.992;19.164;2023-09-18T11:09:23;98713.97;;;28.33
77414;BMP280;66486;49.992;19.164;2023-09-18T11:20:17;98708.28;;;28.11
77414;BMP280;66486;49.992;19.164;2023-09-18T11:22:48;98697.34;;;28.33
77414;BMP280;66486;49.992;19.164;2023-09-18T11:25:35;98704.72;;;28.38
77414;BMP280;66486;49.992;19.164;2023-09-18T11:28:04;98703.97;;;28.38
77414;BMP280;66486;49.992;19.164;2023-09-18T11:30:37;98701.22;;;28.02
77414;BMP280;66486;49.992;19.164;2023-09-18T11:33:05;98706.34;;;27.98
77414;BMP280;66486;49.992;19.164;2023-09-18T11:35:32;98699.41;;;28.04
77414;BMP280;66486;49.992;19.164;2023-09-18T11:38:09;98697.63;;;28.15
77414;BMP280;66486;49.992;19.164;2023-09-18T11:40:37;98692.69;;;28.28
77414;BMP280;66486;49.992;19.164;2023-09-18T11:43:28;98685.47;;;28.25
77414;BMP280;66486;49.992;19.164;2023-09-18T11:46:00;98684.91;;;28.19
77414;BMP280;66486;49.992;19.164;2023-09-18T11:48:30;98690.81;;;28.16
77414;BMP280;66486;49.992;19.164;2023-09-18T11:51:00;98684.75;;;28.25
77414;BMP280;66486;49.992;19.164;2023-09-18T11:53:29;98679.06;;;28.38
77414;BMP280;66486;49.992;19.164;2023-09-18T11:55:59;98683.16;;;28.37
77414;BMP280;66486;49.992;19.164;2023-09-18T11:58:25;98671.97;;;28.65
77414;BMP280;66486;49.992;19.164;2023-09-18T12:00:53;98678.63;;;28.62
77414;BMP280;66486;49.992;19.164;2023-09-18T12:03:23;98677.91;;;28.69
77414;BMP280;66486;49.992;19.164;2023-09-18T12:05:55;98673.28;;;28.71
77414;BMP280;66486;49.992;19.164;2023-09-18T12:08:23;98667.41;;;28.75
77414;BMP280;66486;49.992;19.164;2023-09-18T12:10:55;98654.84;;;28.89
77414;BMP280;66486;49.992;19.164;2023-09-18T12:13:23;98660.97;;;28.95
77414;BMP280;66486;49.992;19.164;2023-09-18T12:15:50;98658.97;;;29.10
77414;BMP280;66486;49.992;19.164;2023-09-18T12:18:16;98656.53;;;28.92
77414;BMP280;66486;49.992;19.164;2023-09-18T12:20:48;98653.34;;;28.73
77414;BMP280;66486;49.992;19.164;2023-09-18T12:23:16;98652.06;;;28.74
77414;BMP280;66486;49.992;19.164;2023-09-18T12:25:44;98645.03;;;28.73
77414;BMP280;66486;49.992;19.164;2023-09-18T12:28:13;98633.63;;;28.84
77414;BMP280;66486;49.992;19.164;2023-09-18T12:30:40;98644.13;;;28.78
77414;BMP280;66486;49.992;19.164;2023-09-18T12:33:06;98629.16;;;28.73
77414;BMP280;66486;49.992;19.164;2023-09-18T12:35:32;98633.34;;;28.52
77414;BMP280;66486;49.992;19.164;2023-09-18T12:37:59;98628.81;;;28.77
77414;BMP280;66486;49.992;19.164;2023-09-18T12:40:28;98626.41;;;29.11
77414;BMP280;66486;49.992;19.164;2023-09-18T12:42:56;98618.47;;;28.85
77414;BMP280;66486;49.992;19.164;2023-09-18T12:45:23;98617.53;;;28.82
77414;BMP280;66486;49.992;19.164;2023-09-18T12:47:50;98634.81;;;28.53
77414;BMP280;66486;49.992;19.164;2023-09-18T12:50:17;98629.50;;;28.62
77414;BMP280;66486;49.992;19.164;2023-09-18T12:52:44;98626.69;;;28.47
77414;BMP280;66486;49.992;19.164;2023-09-18T12:55:26;98623.94;;;28.55
77414;BMP280;66486;49.992;19.164;2023-09-18T12:57:53;98623.16;;;28.47
77414;BMP280;66486;49.992;19.164;2023-09-18T13:00:21;98615.44;;;28.53
77414;BMP280;66486;49.992;19.164;2023-09-18T13:02:49;98627.50;;;28.63
77414;BMP280;66486;49.992;19.164;2023-09-18T13:05:22;98617.69;;;28.62
77414;BMP280;66486;49.992;19.164;2023-09-18T13:07:54;98615.47;;;28.68
77414;BMP280;66486;49.992;19.164;2023-09-18T13:10:21;98606.25;;;28.73
77414;BMP280;66486;49.992;19.164;2023-09-18T13:12:49;98618.28;;;28.98
77414;BMP280;66486;49.992;19.164;2023-09-18T13:15:29;98616.66;;;29.17
77414;BMP280;66486;49.992;19.164;2023-09-18T13:17:58;98618.81;;;28.96
77414;BMP280;66486;49.992;19.164;2023-09-18T13:20:28;98620.66;;;28.79
77414;BMP280;66486;49.992;19.164;2023-09-18T13:22:56;98619.19;;;28.63
77414;BMP280;66486;49.992;19.164;2023-09-18T13:25:26;98608.22;;;28.50
77414;BMP280;66486;49.992;19.164;2023-09-18T13:27:53;98594.94;;;28.48
77414;BMP280;66486;49.992;19.164;2023-09-18T13:30:21;98590.50;;;28.53
77414;BMP280;66486;49.992;19.164;2023-09-18T13:32:48;98600.66;;;28.50
77414;BMP280;66486;49.992;19.164;2023-09-18T13:35:16;98591.47;;;28.63
77414;BMP280;66486;49.992;19.164;2023-09-18T13:37:42;98584.06;;;28.65
77414;BMP280;66486;49.992;19.164;2023-09-18T13:40:10;98580.94;;;28.76
77414;BMP280;66486;49.992;19.164;2023-09-18T13:42:37;98588.72;;;28.63
77414;BMP280;66486;49.992;19.164;2023-09-18T13:45:04;98585.94;;;28.78
77414;BMP280;66486;49.992;19.164;2023-09-18T13:47:35;98580.03;;;28.74
77414;BMP280;66486;49.992;19.164;2023-09-18T13:50:03;98578.94;;;28.69
77414;BMP280;66486;49.992;19.164;2023-09-18T13:52:32;98574.84;;;28.63
77414;BMP280;66486;49.992;19.164;2023-09-18T13:54:59;98581.66;;;28.54
77414;BMP280;66486;49.992;19.164;2023-09-18T13:57:25;98573.16;;;28.45
77414;BMP280;66486;49.992;19.164;2023-09-18T13:59:51;98572.19;;;28.35
77414;BMP280;66486;49.992;19.164;2023-09-18T14:02:18;98563.50;;;28.31
77414;BMP280;66486;49.992;19.164;2023-09-18T14:04:45;98564.97;;;28.32
77414;BMP280;66486;49.992;19.164;2023-09-18T14:07:11;98557.75;;;28.29
77414;BMP280;66486;49.992;19.164;2023-09-18T14:09:38;98562.38;;;28.19
77414;BMP280;66486;49.992;19.164;2023-09-18T14:12:05;98541.84;;;28.07
77414;BMP280;66486;49.992;19.164;2023-09-18T14:14:35;98554.72;;;27.96